Pearsall, TX (78061)

6:24 PM CST on December 02, 2016 (GMT -0600)
Friotown | | Change Station

Elev 696 ft 29.05 °N, 99.40 °W | Updated 23 minutes ago

Rain
Rain
61.6 °F
Feels Like 61.6 °F
N
1.0
Wind Variable Wind from East
Gusts 4.0 mph

Today
High -- | Low -- °F
--% Chance of Precip.
Yesterday
High -- | Low -- °F
Precip. -- in
Pressure 29.90 in
Visibility 5.0 miles
Clouds Overcast 400 ft
Dew Point 60 °F
Humidity 97%
Rainfall in
Snow Depth Not available.
7:13 AM 5:38 PM
Waxing Crescent, 11% visible
METAR KCOT 022353Z AUTO 05007KT 5SM BR OVC004 19/17 A2991 RMK AO2 RAE00 CIG 003V008 SLP124 P0000 60020 T01890172 10194 20178 53005
Pressure 29.90 in
Visibility 5.0 miles
Clouds Overcast 400 ft
Dew Point 60 °F
Humidity 97%
Rainfall in
Snow Depth Not available.
7:13 AM 5:38 PM
Waxing Crescent, 11% visible
METAR KCOT 022353Z AUTO 05007KT 5SM BR OVC004 19/17 A2991 RMK AO2 RAE00 CIG 003V008 SLP124 P0000 60020 T01890172 10194 20178 53005

10-Day Weather Forecast

Almanac

Astronomy

Dec. 02, 2016 Rise Set
Actual Time
Civil Twilight
Nautical Twilight
Astronomical Twilight
Moon
Length of Visible Light
Length of Day
Tomorrow will be .
, % of the Moon is Illuminated

Today's Extremes

State Highs State Lows

Community

WunderPhotos

Upload Photos

1,955,380 photos uploaded!

WunderBlog® & News

Nearby

Air Quality

  Air Quality AQ Index Pollutant
Not available.

Snow Depth

Station Depth Elevation

Earthquake Activity

City Distance Mag. Time & Date
Minimum magnitude displayed is 2.5.

Coastal Water Temperatures

Place Temperature

Stations

Nearby Weather Stations

Station Location Temp. Windchill Dew Point Humidity Wind Precip. Elev Updated Type
                   

Watches & Warnings

There are currently no watches in effect.